Time;durP1;ratioP1;P1;durP2;ratioP2;P2;SDS_P1;SDS_P2;PMS_P1;PMS_P2;Temp;Humidity;BMP_temperature;BMP_pressure;BME280_temperature;BME280_humidity;BME280_pressure;Samples;Min_cycle;Max_cycle;Signal;HPM_P1;HPM_P2
2022/07/14 00:00:56;;;;;;;;;;;;;;;26.29;34.81;100935.34;5070409;28;1893;-38
2022/07/14 00:03:21;;;;;;;;;;;;;;;26.22;34.54;100931.63;5059475;28;1041;-39
2022/07/14 00:05:46;;;;;;;;;;;;;;;26.39;34.68;100935.16;5064007;28;953;-39
2022/07/14 00:08:12;;;;;;;;;;;;;;;26.29;34.27;100941.56;5060197;28;993;-39
2022/07/14 00:10:37;;;;;;;;;;;;;;;26.24;34.68;100935.00;5070757;28;1051;-39
2022/07/14 00:13:02;;;;;;;;;;;;;;;26.44;34.60;100930.09;5068755;28;1016;-39
2022/07/14 00:15:28;;;;;;;;;;;;;;;26.53;34.21;100925.50;5065035;28;1016;-39
2022/07/14 00:17:55;;;;;;;;;;;;;;;26.34;34.27;100934.84;5069688;28;1175;-39
2022/07/14 00:20:20;;;;;;;;;;;;;;;26.23;34.63;100933.31;5073987;28;1902;-39
2022/07/14 00:22:46;;;;;;;;;;;;;;;26.43;34.12;100936.47;5061583;28;1912;-39
2022/07/14 00:25:11;;;;;;;;;;;;;;;26.31;34.27;100940.56;5069187;28;1076;-38
2022/07/14 00:27:36;;;;;;;;;;;;;;;26.21;34.62;100948.84;5061051;28;953;-39
2022/07/14 00:30:02;;;;;;;;;;;;;;;26.41;34.67;100941.22;5065092;28;1000;-38
2022/07/14 00:32:28;;;;;;;;;;;;;;;26.26;34.79;100943.75;5066834;28;1236;-39
2022/07/14 00:34:53;;;;;;;;;;;;;;;26.22;35.25;100956.75;5075142;28;1154;-39
2022/07/14 00:37:18;;;;;;;;;;;;;;;26.34;34.99;100946.44;5063771;28;1004;-39
2022/07/14 00:39:56;;;;;;;;;;;;;;;26.22;35.07;100953.22;5064629;28;1961;-39
2022/07/14 00:42:34;;;;;;;;;;;;;;;26.20;35.01;100955.22;5057345;28;981;-40
2022/07/14 00:45:00;;;;;;;;;;;;;;;26.45;35.01;100953.34;5071506;28;1082;-39
2022/07/14 00:47:26;;;;;;;;;;;;;;;26.38;35.11;100950.50;5068856;28;1198;-38
2022/07/14 00:49:52;;;;;;;;;;;;;;;26.16;35.13;100952.03;5072674;28;1095;-39
2022/07/14 00:52:18;;;;;;;;;;;;;;;26.35;35.48;100950.00;5062985;28;2435;-39
2022/07/14 00:54:43;;;;;;;;;;;;;;;26.29;35.14;100944.25;5074265;28;1106;-38
2022/07/14 00:57:08;;;;;;;;;;;;;;;26.15;35.55;100948.50;5073372;28;1225;-39
2022/07/14 00:59:34;;;;;;;;;;;;;;;26.35;35.30;100945.47;5057288;28;1898;-39
2022/07/14 01:01:59;;;;;;;;;;;;;;;26.19;35.45;100951.72;5069312;28;1100;-38
2022/07/14 01:04:25;;;;;;;;;;;;;;;26.00;36.11;100950.22;5061345;28;1197;-38
2022/07/14 01:06:50;;;;;;;;;;;;;;;26.16;35.47;100950.19;5071273;28;1067;-39
2022/07/14 01:09:15;;;;;;;;;;;;;;;26.22;35.40;100953.22;5068056;28;1212;-39
2022/07/14 01:11:41;;;;;;;;;;;;;;;26.17;35.20;100953.72;5072009;28;1008;-38
2022/07/14 01:14:06;;;;;;;;;;;;;;;26.32;35.50;100950.31;5071360;28;1078;-39
2022/07/14 01:16:31;;;;;;;;;;;;;;;26.47;35.01;100945.94;5067750;28;977;-39
2022/07/14 01:18:56;;;;;;;;;;;;;;;26.33;34.89;100949.31;5078022;28;1973;-38
2022/07/14 01:21:22;;;;;;;;;;;;;;;26.24;35.06;100946.63;5077202;28;2564;-38
2022/07/14 01:23:47;;;;;;;;;;;;;;;26.44;35.04;100942.72;5065889;28;993;-38
2022/07/14 01:26:12;;;;;;;;;;;;;;;26.31;35.27;100944.06;5061983;28;1083;-38
2022/07/14 01:28:38;;;;;;;;;;;;;;;26.21;35.36;100943.44;5068086;28;909;-38
2022/07/14 01:31:03;;;;;;;;;;;;;;;26.27;35.51;100954.38;5069887;28;1146;-38
2022/07/14 01:33:29;;;;;;;;;;;;;;;26.20;35.86;100945.28;5066586;28;1080;-38
2022/07/14 01:35:54;;;;;;;;;;;;;;;26.14;35.17;100944.13;5070762;28;1082;-38
2022/07/14 01:38:19;;;;;;;;;;;;;;;26.19;35.83;100943.63;5073001;28;996;-38
2022/07/14 01:40:45;;;;;;;;;;;;;;;26.52;35.32;100948.09;5064590;28;1956;-39
2022/07/14 01:43:10;;;;;;;;;;;;;;;26.61;34.95;100947.03;5075333;28;1067;-39
2022/07/14 01:45:36;;;;;;;;;;;;;;;26.54;34.94;100946.06;5073455;28;1146;-39
2022/07/14 01:48:01;;;;;;;;;;;;;;;26.32;34.79;100948.47;5068133;28;1023;-39
2022/07/14 01:50:26;;;;;;;;;;;;;;;26.24;35.46;100960.09;5073103;28;1182;-39
2022/07/14 01:52:52;;;;;;;;;;;;;;;26.37;35.48;100964.16;5071759;28;2685;-39
2022/07/14 01:55:17;;;;;;;;;;;;;;;26.12;36.01;100954.25;5064726;28;969;-39
2022/07/14 01:57:42;;;;;;;;;;;;;;;26.27;35.78;100965.16;5065314;28;1001;-39
2022/07/14 02:00:08;;;;;;;;;;;;;;;26.53;35.14;100958.72;5073175;28;1894;-39
2022/07/14 02:02:33;;;;;;;;;;;;;;;26.25;35.66;100961.81;5059511;28;1376;-38
2022/07/14 02:04:58;;;;;;;;;;;;;;;26.17;35.37;100951.84;5071682;28;937;-38
2022/07/14 02:07:24;;;;;;;;;;;;;;;26.39;35.55;100954.88;5062178;28;1041;-38
2022/07/14 02:12:33;;;;;;;;;;;;;;;26.26;35.69;100963.47;5074812;28;1035;-38
2022/07/14 02:14:58;;;;;;;;;;;;;;;26.23;35.23;100969.22;5077288;28;1079;-38
2022/07/14 02:17:24;;;;;;;;;;;;;;;26.47;35.32;100964.81;5075359;28;1422;-39
2022/07/14 02:19:49;;;;;;;;;;;;;;;26.38;35.41;100969.38;5065922;28;1947;-38
2022/07/14 02:22:14;;;;;;;;;;;;;;;26.22;35.72;100966.69;5065989;28;2438;-38
2022/07/14 02:24:41;;;;;;;;;;;;;;;26.16;36.07;100977.16;5057740;28;1186;-38
2022/07/14 02:27:07;;;;;;;;;;;;;;;26.43;36.02;100974.25;5073386;28;988;-39
2022/07/14 02:29:32;;;;;;;;;;;;;;;26.28;36.04;100976.78;5063719;28;1087;-39
2022/07/14 02:31:58;;;;;;;;;;;;;;;26.23;35.73;100971.91;5065216;28;1145;-39
2022/07/14 02:34:23;;;;;;;;;;;;;;;26.27;35.77;100975.97;5072220;28;1086;-39
2022/07/14 02:36:48;;;;;;;;;;;;;;;26.22;35.32;100981.03;5070903;28;1272;-39
2022/07/14 02:39:14;;;;;;;;;;;;;;;26.10;35.61;100971.59;5062688;28;1914;-39
2022/07/14 02:41:40;;;;;;;;;;;;;;;26.26;35.69;100974.25;5071470;28;949;-41
2022/07/14 02:44:05;;;;;;;;;;;;;;;26.44;35.27;100975.94;5073525;28;988;-40
2022/07/14 02:46:30;;;;;;;;;;;;;;;26.25;35.10;100983.38;5076231;28;1134;-40
2022/07/14 02:48:56;;;;;;;;;;;;;;;26.15;34.90;100985.41;5072731;28;1205;-41
2022/07/14 02:51:21;;;;;;;;;;;;;;;26.32;35.61;100979.97;5058049;28;2521;-40
2022/07/14 02:53:46;;;;;;;;;;;;;;;26.51;35.12;100984.16;5064722;28;825;-40
2022/07/14 02:56:12;;;;;;;;;;;;;;;26.36;34.78;100981.38;5068478;28;1071;-40
2022/07/14 02:58:38;;;;;;;;;;;;;;;26.16;35.66;100982.53;5072364;28;1051;-40
2022/07/14 03:01:03;;;;;;;;;;;;;;;26.36;35.31;100984.06;5059672;28;1910;-39
2022/07/14 03:03:29;;;;;;;;;;;;;;;26.55;35.29;100974.72;5072247;28;1075;-40
2022/07/14 03:05:54;;;;;;;;;;;;;;;26.33;35.26;100982.53;5062687;28;1205;-39
2022/07/14 03:08:19;;;;;;;;;;;;;;;26.18;35.78;100982.38;5075469;28;980;-39
2022/07/14 03:10:44;;;;;;;;;;;;;;;26.29;35.86;100983.88;5075153;28;1142;-39
2022/07/14 03:13:10;;;;;;;;;;;;;;;26.25;35.78;100980.69;5076867;28;1063;-39
2022/07/14 03:15:36;;;;;;;;;;;;;;;26.21;35.65;100989.28;5070474;28;1079;-38
2022/07/14 03:18:01;;;;;;;;;;;;;;;26.48;35.79;100990.75;5060684;28;1150;-39
2022/07/14 03:20:27;;;;;;;;;;;;;;;26.28;35.63;100991.13;5072141;28;1984;-41
2022/07/14 03:22:52;;;;;;;;;;;;;;;26.21;36.04;100992.81;5059639;28;2422;-41
2022/07/14 03:25:17;;;;;;;;;;;;;;;26.32;35.79;100998.84;5072569;28;1074;-40
2022/07/14 03:27:46;;;;;;;;;;;;;;;25.86;33.50;100995.69;5061602;28;1098;-40
2022/07/14 03:30:11;;;;;;;;;;;;;;;25.27;33.27;100994.78;5060177;28;895;-40
2022/07/14 03:32:36;;;;;;;;;;;;;;;25.48;33.03;100998.84;5065694;28;973;-40
2022/07/14 03:35:04;;;;;;;;;;;;;;;25.63;34.02;100992.81;5061396;28;1087;-40
2022/07/14 03:37:29;;;;;;;;;;;;;;;25.59;32.81;100997.66;5072718;28;1056;-39
2022/07/14 03:39:55;;;;;;;;;;;;;;;25.37;33.53;100993.78;5074022;28;1960;-38
2022/07/14 03:42:20;;;;;;;;;;;;;;;25.31;32.36;100997.94;5061346;28;1178;-39
2022/07/14 03:44:45;;;;;;;;;;;;;;;25.40;32.39;100999.69;5075420;28;1032;-37
2022/07/14 03:47:11;;;;;;;;;;;;;;;25.12;32.41;101001.78;5072053;28;1189;-37
2022/07/14 03:49:36;;;;;;;;;;;;;;;24.96;32.28;100989.13;5067518;28;1056;-38
2022/07/14 03:52:01;;;;;;;;;;;;;;;24.97;33.08;100993.50;5060887;28;2412;-37
2022/07/14 03:54:27;;;;;;;;;;;;;;;25.06;32.25;100995.19;5060276;28;1023;-38
2022/07/14 03:56:52;;;;;;;;;;;;;;;25.19;32.31;100998.25;5071753;28;1138;-38
2022/07/14 03:59:18;;;;;;;;;;;;;;;24.94;32.29;101002.75;5069647;28;1913;-37
2022/07/14 04:01:43;;;;;;;;;;;;;;;25.44;32.42;101010.97;5073028;28;1141;-39
2022/07/14 04:04:08;;;;;;;;;;;;;;;25.71;32.85;101010.88;5072362;28;1256;-41
2022/07/14 04:06:33;;;;;;;;;;;;;;;25.64;32.64;101008.81;5065474;28;993;-39
2022/07/14 04:08:59;;;;;;;;;;;;;;;25.75;31.99;101013.06;5062044;28;1146;-41
2022/07/14 04:11:24;;;;;;;;;;;;;;;25.96;32.28;101016.25;5069615;28;964;-41
2022/07/14 04:13:50;;;;;;;;;;;;;;;26.20;31.42;101010.00;5069745;28;964;-39
2022/07/14 04:16:15;;;;;;;;;;;;;;;26.48;31.28;101015.03;5057131;28;1194;-39
2022/07/14 04:18:40;;;;;;;;;;;;;;;26.79;31.09;101013.44;5064137;28;883;-38
2022/07/14 04:21:07;;;;;;;;;;;;;;;26.83;31.43;101020.16;5068689;28;2508;-39
2022/07/14 04:23:32;;;;;;;;;;;;;;;26.83;31.26;101012.06;5062279;28;1080;-37
2022/07/14 04:25:58;;;;;;;;;;;;;;;26.92;31.08;101012.03;5071788;28;1027;-39
2022/07/14 04:28:23;;;;;;;;;;;;;;;27.02;31.29;101021.66;5073500;28;1000;-39
2022/07/14 04:30:48;;;;;;;;;;;;;;;27.03;31.37;101017.06;5062595;28;1041;-37
2022/07/14 04:33:14;;;;;;;;;;;;;;;26.99;31.35;101027.34;5068054;28;1064;-36
2022/07/14 04:35:39;;;;;;;;;;;;;;;27.03;31.12;101027.88;5071733;28;1044;-37
2022/07/14 04:38:04;;;;;;;;;;;;;;;27.05;31.55;101023.13;5072406;28;1311;-37
2022/07/14 04:40:29;;;;;;;;;;;;;;;27.08;31.62;101030.88;5073640;28;1949;-37
2022/07/14 04:42:55;;;;;;;;;;;;;;;27.05;31.39;101025.00;5066502;28;953;-36
2022/07/14 04:45:22;;;;;;;;;;;;;;;27.19;31.49;101023.41;5066252;28;957;-36
2022/07/14 04:47:47;;;;;;;;;;;;;;;27.23;31.00;101022.03;5063878;28;1043;-36
2022/07/14 04:52:57;;;;;;;;;;;;;;;27.32;31.19;101023.69;5061696;28;2751;-36
2022/07/14 04:55:22;;;;;;;;;;;;;;;27.38;31.11;101022.97;5070060;28;1001;-36
2022/07/14 04:57:47;;;;;;;;;;;;;;;27.36;31.54;101024.19;5075276;28;1012;-37
2022/07/14 05:00:13;;;;;;;;;;;;;;;27.47;31.09;101028.31;5077489;28;1911;-37
2022/07/14 05:02:38;;;;;;;;;;;;;;;27.41;31.81;101024.44;5076548;28;1115;-36
2022/07/14 05:05:03;;;;;;;;;;;;;;;27.39;32.43;101021.94;5076098;28;1129;-37
2022/07/14 05:07:29;;;;;;;;;;;;;;;27.49;33.23;101028.97;5059759;28;926;-37
2022/07/14 05:09:54;;;;;;;;;;;;;;;27.45;33.18;101030.34;5070368;28;1075;-38
2022/07/14 05:12:19;;;;;;;;;;;;;;;27.42;33.70;101028.84;5072920;28;1059;-36
2022/07/14 05:14:45;;;;;;;;;;;;;;;27.43;34.19;101024.28;5070937;28;987;-37
2022/07/14 05:17:11;;;;;;;;;;;;;;;27.43;34.76;101026.97;5067133;28;1016;-38
2022/07/14 05:19:36;;;;;;;;;;;;;;;27.43;35.03;101025.13;5071444;28;1902;-37
2022/07/14 05:22:02;;;;;;;;;;;;;;;27.45;35.55;101033.91;5068363;28;2464;-37
2022/07/14 05:24:27;;;;;;;;;;;;;;;27.43;35.55;101030.53;5072493;28;1182;-36
2022/07/14 05:26:52;;;;;;;;;;;;;;;27.46;36.16;101035.56;5071129;28;1008;-38
2022/07/14 05:29:18;;;;;;;;;;;;;;;27.49;36.39;101035.22;5070086;28;1120;-37
2022/07/14 05:31:43;;;;;;;;;;;;;;;27.51;36.46;101038.59;5062689;28;1132;-37
2022/07/14 05:34:08;;;;;;;;;;;;;;;27.53;36.69;101040.28;5077788;28;1071;-38
2022/07/14 05:36:34;;;;;;;;;;;;;;;27.51;36.74;101035.88;5077140;28;944;-36
2022/07/14 05:39:00;;;;;;;;;;;;;;;27.49;36.97;101032.50;5078124;28;1955;-36
2022/07/14 05:41:26;;;;;;;;;;;;;;;27.56;36.70;101040.75;5067059;28;1126;-36
2022/07/14 05:43:51;;;;;;;;;;;;;;;27.51;36.95;101037.72;5066848;28;1000;-36
2022/07/14 05:46:16;;;;;;;;;;;;;;;27.62;37.26;101040.03;5072488;28;1215;-36
2022/07/14 05:48:42;;;;;;;;;;;;;;;27.66;36.44;101036.97;5071920;28;1043;-36
2022/07/14 05:51:14;;;;;;;;;;;;;;;27.67;36.69;101033.25;5071002;28;2453;-36
2022/07/14 05:53:40;;;;;;;;;;;;;;;27.66;37.89;101035.09;5069892;28;1032;-36
2022/07/14 05:56:05;;;;;;;;;;;;;;;27.63;37.86;101030.91;5070263;28;1004;-36
2022/07/14 05:58:31;;;;;;;;;;;;;;;27.66;38.43;101034.28;5070422;28;997;-36
2022/07/14 06:00:57;;;;;;;;;;;;;;;25.83;42.53;101031.06;5076920;28;1954;-36
2022/07/14 06:03:22;;;;;;;;;;;;;;;21.50;51.65;101022.19;5067502;28;969;-37
2022/07/14 06:05:47;;;;;;;;;;;;;;;20.05;53.80;101016.72;5064173;28;993;-37
2022/07/14 06:08:13;;;;;;;;;;;;;;;19.41;54.43;101020.03;5069925;28;1039;-40
2022/07/14 06:10:38;;;;;;;;;;;;;;;19.29;55.03;101015.69;5072779;28;977;-38
2022/07/14 06:13:03;;;;;;;;;;;;;;;19.09;54.82;101015.44;5070912;28;992;-39
2022/07/14 06:15:29;;;;;;;;;;;;;;;19.02;55.18;101020.41;5074337;28;1134;-38
2022/07/14 06:17:54;;;;;;;;;;;;;;;18.89;55.29;101017.00;5070438;28;1189;-39
2022/07/14 06:20:20;;;;;;;;;;;;;;;18.81;55.19;101010.47;5067172;28;1902;-40
2022/07/14 06:22:45;;;;;;;;;;;;;;;18.80;55.06;101014.09;5063629;28;2534;-38
2022/07/14 06:25:10;;;;;;;;;;;;;;;18.61;54.65;101009.38;5077560;28;1188;-39
2022/07/14 06:27:36;;;;;;;;;;;;;;;18.47;54.37;101011.28;5070888;28;952;-40
2022/07/14 06:30:07;;;;;;;;;;;;;;;18.43;54.71;101012.50;5061109;28;1068;-41
2022/07/14 06:32:32;;;;;;;;;;;;;;;18.38;54.56;101005.81;5069029;28;1155;-39
2022/07/14 06:34:58;;;;;;;;;;;;;;;18.30;54.79;101007.25;5076989;28;1177;-39
2022/07/14 06:37:23;;;;;;;;;;;;;;;18.29;54.69;101013.53;5070596;28;1023;-40
2022/07/14 06:39:48;;;;;;;;;;;;;;;18.14;54.87;101009.38;5071451;28;1967;-40
2022/07/14 06:42:14;;;;;;;;;;;;;;;18.08;54.74;101008.00;5066230;28;1150;-39
2022/07/14 06:44:39;;;;;;;;;;;;;;;18.02;54.77;101006.66;5064649;28;1005;-39
2022/07/14 06:47:05;;;;;;;;;;;;;;;17.97;55.24;101004.34;5070375;28;1098;-39
2022/07/14 06:49:30;;;;;;;;;;;;;;;17.97;54.88;101001.66;5074659;28;1008;-39
2022/07/14 06:51:55;;;;;;;;;;;;;;;18.02;55.42;100996.00;5071095;28;2341;-38
2022/07/14 06:54:21;;;;;;;;;;;;;;;18.05;55.65;100992.28;5069887;28;1083;-38
2022/07/14 06:56:46;;;;;;;;;;;;;;;18.27;56.35;100993.34;5069568;28;1004;-39
2022/07/14 06:59:11;;;;;;;;;;;;;;;18.32;56.14;100992.00;5059409;28;1902;-39
2022/07/14 07:01:37;;;;;;;;;;;;;;;18.38;56.57;100995.16;5064501;28;1229;-38
2022/07/14 07:04:03;;;;;;;;;;;;;;;18.39;56.94;100981.72;5065893;28;962;-39
2022/07/14 07:06:46;;;;;;;;;;;;;;;18.32;56.84;100981.34;5068647;28;913;-40
2022/07/14 07:09:12;;;;;;;;;;;;;;;18.29;56.87;100981.59;5061654;28;973;-38
2022/07/14 07:11:37;;;;;;;;;;;;;;;18.32;57.18;100983.16;5067740;28;1027;-40
2022/07/14 07:14:03;;;;;;;;;;;;;;;18.27;57.38;100977.34;5067903;28;1080;-40
2022/07/14 07:16:28;;;;;;;;;;;;;;;18.32;57.62;100973.34;5073684;28;1083;-39
2022/07/14 07:18:53;;;;;;;;;;;;;;;18.37;57.45;100969.50;5066576;28;1047;-38
2022/07/14 07:21:20;;;;;;;;;;;;;;;18.35;57.60;100969.63;5070944;28;2549;-40
2022/07/14 07:23:46;;;;;;;;;;;;;;;18.31;57.74;100977.00;5068311;28;1028;-38
2022/07/14 07:26:12;;;;;;;;;;;;;;;18.37;57.91;100967.66;5067356;28;1007;-39
2022/07/14 07:28:38;;;;;;;;;;;;;;;18.40;57.69;100966.59;5062167;28;973;-38
2022/07/14 07:31:03;;;;;;;;;;;;;;;18.38;57.91;100971.19;5065736;28;1091;-39
2022/07/14 07:33:29;;;;;;;;;;;;;;;18.32;57.92;100969.84;5064191;28;1036;-39
2022/07/14 07:35:54;;;;;;;;;;;;;;;18.33;57.85;100974.22;5067376;28;972;-39
2022/07/14 07:38:19;;;;;;;;;;;;;;;18.30;57.73;100969.13;5070312;28;1023;-38
2022/07/14 07:40:47;;;;;;;;;;;;;;;18.33;57.60;100980.38;5059626;28;1963;-38
2022/07/14 07:43:12;;;;;;;;;;;;;;;18.39;57.79;100976.41;5064300;28;1031;-40
2022/07/14 07:45:38;;;;;;;;;;;;;;;18.47;57.83;100973.13;5069536;28;1131;-39
2022/07/14 07:48:04;;;;;;;;;;;;;;;18.46;58.26;100974.97;5065667;28;1087;-38
2022/07/14 07:50:30;;;;;;;;;;;;;;;18.45;57.80;100969.75;5070100;28;1136;-38
2022/07/14 07:52:55;;;;;;;;;;;;;;;18.26;57.87;100972.97;5065907;28;2874;-40
2022/07/14 07:55:20;;;;;;;;;;;;;;;18.35;58.21;100967.78;5058930;28;1227;-40
2022/07/14 07:57:45;;;;;;;;;;;;;;;18.39;58.18;100972.88;5064650;28;1059;-39
2022/07/14 08:00:11;;;;;;;;;;;;;;;18.37;58.55;100964.19;5070638;28;1902;-39
2022/07/14 08:02:43;;;;;;;;;;;;;;;18.35;58.41;100964.31;5066405;28;1592;-39
2022/07/14 08:05:08;;;;;;;;;;;;;;;18.37;58.17;100967.66;5072159;28;1004;-39
2022/07/14 08:07:34;;;;;;;;;;;;;;;18.51;58.80;100969.28;5061262;28;1118;-38
2022/07/14 08:09:59;;;;;;;;;;;;;;;18.69;60.59;100968.78;5073549;28;1079;-39
2022/07/14 08:12:25;;;;;;;;;;;;;;;18.77;60.81;100961.03;5072412;28;1194;-39
2022/07/14 08:14:51;;;;;;;;;;;;;;;18.60;60.16;100965.06;5075022;28;1117;-38
2022/07/14 08:17:18;;;;;;;;;;;;;;;19.20;66.17;100970.09;5075293;28;1192;-40
2022/07/14 08:19:43;;;;;;;;;;;;;;;21.98;52.90;100968.81;5061878;28;1950;-39
2022/07/14 08:22:08;;;;;;;;;;;;;;;23.28;53.03;100964.66;5063851;28;2513;-39
2022/07/14 08:24:34;;;;;;;;;;;;;;;24.38;46.04;100962.75;5064950;28;993;-38
2022/07/14 08:26:59;;;;;;;;;;;;;;;24.37;45.62;100966.44;5062232;28;1174;-40
2022/07/14 08:29:24;;;;;;;;;;;;;;;24.17;49.54;100953.22;5070369;28;1114;-40
2022/07/14 08:31:50;;;;;;;;;;;;;;;24.80;43.45;100961.09;5057587;28;1101;-39
2022/07/14 08:34:15;;;;;;;;;;;;;;;24.81;44.36;100963.63;5067549;28;996;-40
2022/07/14 08:36:40;;;;;;;;;;;;;;;25.14;43.11;100962.91;5069755;28;992;-40
2022/07/14 08:39:06;;;;;;;;;;;;;;;25.34;41.82;100959.09;5068436;28;1890;-39
2022/07/14 08:41:34;;;;;;;;;;;;;;;25.24;44.85;100949.31;5072141;28;1079;-39
2022/07/14 08:44:00;;;;;;;;;;;;;;;25.34;40.53;100949.16;5063141;28;1249;-40
2022/07/14 08:46:25;;;;;;;;;;;;;;;25.41;43.04;100954.72;5073801;28;1043;-38
2022/07/14 08:48:51;;;;;;;;;;;;;;;25.83;43.43;100950.22;5071440;28;1245;-38
2022/07/14 08:51:17;;;;;;;;;;;;;;;25.90;39.65;100947.69;5074237;28;2474;-38
2022/07/14 08:53:42;;;;;;;;;;;;;;;25.90;41.55;100947.69;5067480;28;1062;-40
2022/07/14 08:56:08;;;;;;;;;;;;;;;25.84;38.74;100954.59;5060426;28;969;-41
2022/07/14 08:58:33;;;;;;;;;;;;;;;25.87;39.01;100945.34;5069783;28;1056;-38
2022/07/14 09:00:58;;;;;;;;;;;;;;;26.02;40.63;100940.09;5057423;28;1906;-40
2022/07/14 09:03:24;;;;;;;;;;;;;;;25.79;39.09;100944.31;5064667;28;944;-38
2022/07/14 09:05:49;;;;;;;;;;;;;;;26.11;40.97;100938.25;5066606;28;1159;-39
2022/07/14 09:08:14;;;;;;;;;;;;;;;26.39;37.82;100925.19;5068961;28;945;-37
2022/07/14 09:10:40;;;;;;;;;;;;;;;26.36;39.84;100920.16;5064122;28;1234;-40
2022/07/14 09:13:13;;;;;;;;;;;;;;;26.20;41.19;100931.81;5065854;28;1297;-39
2022/07/14 09:15:44;;;;;;;;;;;;;;;26.23;38.63;100928.75;5068422;28;1112;-41
2022/07/14 09:18:12;;;;;;;;;;;;;;;26.03;39.35;100929.16;5062303;28;929;-41
2022/07/14 09:20:37;;;;;;;;;;;;;;;25.96;39.34;100925.44;5062640;28;1977;-41
2022/07/14 09:23:03;;;;;;;;;;;;;;;26.31;38.76;100930.59;5064515;28;1904;-40
2022/07/14 09:25:29;;;;;;;;;;;;;;;26.28;39.76;100929.09;5062614;28;1192;-40
2022/07/14 09:27:55;;;;;;;;;;;;;;;26.22;37.70;100919.00;5058954;28;1243;-39
2022/07/14 09:30:20;;;;;;;;;;;;;;;25.96;38.65;100928.13;5064871;28;1527;-38
2022/07/14 09:32:52;;;;;;;;;;;;;;;25.99;40.59;100932.38;5061095;28;989;-39
2022/07/14 09:35:27;;;;;;;;;;;;;;;26.01;38.28;100920.38;5059843;28;1195;-39
2022/07/14 09:37:53;;;;;;;;;;;;;;;26.03;39.96;100917.50;5058721;28;1365;-41
2022/07/14 09:40:21;;;;;;;;;;;;;;;26.13;39.49;100907.38;5064254;28;1977;-42
2022/07/14 09:42:53;;;;;;;;;;;;;;;26.03;38.72;100906.72;5061565;28;1190;-42
2022/07/14 09:45:20;;;;;;;;;;;;;;;25.97;41.18;100910.13;5063511;28;1208;-42
2022/07/14 09:47:51;;;;;;;;;;;;;;;26.15;38.47;100907.22;5060988;28;1369;-41
2022/07/14 09:50:34;;;;;;;;;;;;;;;26.08;38.98;100901.66;5070866;28;1250;-41
2022/07/14 09:53:19;;;;;;;;;;;;;;;26.07;40.46;100893.75;5059137;28;2020;-43
2022/07/14 09:55:52;;;;;;;;;;;;;;;26.23;38.36;100903.66;5074185;28;1233;-42
2022/07/14 09:58:20;;;;;;;;;;;;;;;26.13;38.35;100904.69;5061832;28;1485;-40
2022/07/14 10:00:55;;;;;;;;;;;;;;;26.12;40.63;100905.72;5063851;28;1906;-41
2022/07/14 10:03:21;;;;;;;;;;;;;;;26.34;38.46;100895.22;5062618;28;1378;-41
2022/07/14 10:05:46;;;;;;;;;;;;;;;26.28;39.31;100902.13;5063868;28;1220;-42
2022/07/14 10:08:11;;;;;;;;;;;;;;;26.47;39.24;100901.91;5064386;28;1446;-41
2022/07/14 10:10:37;;;;;;;;;;;;;;;26.34;36.10;100897.91;5057497;28;1014;-43
2022/07/14 10:13:03;;;;;;;;;;;;;;;26.17;40.21;100897.94;5062926;28;1202;-42
2022/07/14 10:15:28;;;;;;;;;;;;;;;26.38;37.83;100893.84;5061248;28;1217;-41
2022/07/14 10:17:54;;;;;;;;;;;;;;;26.25;38.49;100894.38;5071730;28;1413;-40
2022/07/14 10:20:19;;;;;;;;;;;;;;;26.35;39.33;100887.97;5058996;28;1910;-42
2022/07/14 10:22:45;;;;;;;;;;;;;;;26.33;38.78;100890.00;5066544;28;2095;-43
2022/07/14 10:25:11;;;;;;;;;;;;;;;26.28;40.24;100888.66;5065035;28;1341;-42
2022/07/14 10:27:40;;;;;;;;;;;;;;;26.49;37.28;100883.72;5065397;28;993;-41
2022/07/14 10:30:05;;;;;;;;;;;;;;;26.33;38.27;100880.06;5064669;28;1067;-42
2022/07/14 10:32:40;;;;;;;;;;;;;;;26.20;41.08;100891.38;5068988;28;981;-41
2022/07/14 10:35:23;;;;;;;;;;;;;;;26.57;37.80;100885.53;5061653;28;1090;-42
2022/07/14 10:37:55;;;;;;;;;;;;;;;26.44;38.93;100889.63;5062948;28;968;-41
2022/07/14 10:40:38;;;;;;;;;;;;;;;26.43;39.48;100887.94;5070376;28;1968;-41
2022/07/14 10:43:05;;;;;;;;;;;;;;;26.07;35.56;100870.34;5069353;28;941;-41
2022/07/14 10:45:30;;;;;;;;;;;;;;;26.20;37.86;100858.16;5059299;28;1154;-40
2022/07/14 10:47:56;;;;;;;;;;;;;;;26.55;37.52;100866.81;5064998;28;1402;-41
2022/07/14 10:50:22;;;;;;;;;;;;;;;26.40;37.22;100874.81;5062570;28;1262;-40
2022/07/14 10:52:53;;;;;;;;;;;;;;;26.22;39.77;100870.47;5059845;28;2099;-43
2022/07/14 10:55:22;;;;;;;;;;;;;;;26.54;37.33;100875.94;5063339;28;1235;-44
2022/07/14 10:58:00;;;;;;;;;;;;;;;26.41;37.69;100866.53;5058799;28;1253;-42
2022/07/14 11:00:44;;;;;;;;;;;;;;;26.39;39.90;100856.94;5058454;28;1910;-42
2022/07/14 11:03:18;;;;;;;;;;;;;;;26.62;36.64;100865.09;5064112;28;1087;-42
2022/07/14 11:06:08;;;;;;;;;;;;;;;26.47;37.90;100856.06;5059834;28;1096;-42
2022/07/14 11:08:44;;;;;;;;;;;;;;;26.26;40.14;100858.31;5057518;28;961;-41
2022/07/14 11:11:23;;;;;;;;;;;;;;;26.62;37.33;100850.75;5059810;28;2122;-41
2022/07/14 11:14:01;;;;;;;;;;;;;;;26.59;38.22;100860.03;5065169;28;1197;-41
2022/07/14 11:16:49;;;;;;;;;;;;;;;26.38;40.84;100848.00;5071329;28;1325;-41
2022/07/14 11:19:21;;;;;;;;;;;;;;;26.21;36.22;100855.28;5064615;28;1910;-39
2022/07/14 11:22:05;;;;;;;;;;;;;;;26.51;37.01;100852.84;5061114;28;1147;-39
2022/07/14 11:24:36;;;;;;;;;;;;;;;26.44;38.83;100856.41;5064761;28;1551;-40
2022/07/14 11:27:21;;;;;;;;;;;;;;;26.78;36.58;100839.03;5064439;28;1347;-38
2022/07/14 11:29:46;;;;;;;;;;;;;;;26.94;37.00;100831.84;5061047;28;1164;-38
2022/07/14 11:32:30;;;;;;;;;;;;;;;27.10;37.84;100844.41;5059684;28;1374;-39
2022/07/14 11:37:57;;;;;;;;;;;;;;;27.00;36.49;100837.38;5058412;28;1271;-36
2022/07/14 11:40:44;;;;;;;;;;;;;;;26.85;39.65;100823.81;5062273;28;1975;-39
2022/07/14 11:43:28;;;;;;;;;;;;;;;26.97;36.43;100829.63;5062567;28;1397;-38
2022/07/14 11:46:20;;;;;;;;;;;;;;;27.13;37.18;100822.44;5062399;28;1203;-39
2022/07/14 11:48:48;;;;;;;;;;;;;;;27.19;37.66;100815.47;5055689;28;1191;-39
2022/07/14 11:51:26;;;;;;;;;;;;;;;27.12;35.92;100818.91;5058385;28;1568;-41
2022/07/14 11:53:52;;;;;;;;;;;;;;;27.10;36.05;100831.75;5068718;28;1472;-40
2022/07/14 11:56:19;;;;;;;;;;;;;;;27.06;38.78;100821.50;5060906;28;1190;-40
2022/07/14 11:58:44;;;;;;;;;;;;;;;27.08;36.11;100822.97;5061284;28;1111;-40
2022/07/14 12:01:10;;;;;;;;;;;;;;;26.84;37.20;100815.88;5062911;28;1968;-39
2022/07/14 12:03:35;;;;;;;;;;;;;;;26.92;38.88;100815.81;5065854;28;1388;-40
2022/07/14 12:06:00;;;;;;;;;;;;;;;27.11;37.20;100819.09;5061828;28;1439;-40
2022/07/14 12:08:30;;;;;;;;;;;;;;;26.84;39.18;100811.31;5061480;28;1182;-40
2022/07/14 12:11:03;;;;;;;;;;;;;;;27.30;36.42;100816.88;5066312;28;997;-40
2022/07/14 12:13:28;;;;;;;;;;;;;;;27.16;37.52;100819.38;5061958;28;958;-40
2022/07/14 12:15:59;;;;;;;;;;;;;;;27.19;38.79;100816.31;5064051;28;995;-42
2022/07/14 12:18:27;;;;;;;;;;;;;;;27.42;36.93;100814.59;5069780;28;1064;-41
2022/07/14 12:20:53;;;;;;;;;;;;;;;27.22;38.72;100812.41;5059439;28;1914;-40
2022/07/14 12:23:18;;;;;;;;;;;;;;;27.53;38.28;100811.44;5064872;28;1240;-40
2022/07/14 12:25:44;;;;;;;;;;;;;;;27.46;37.51;100808.63;5069486;28;814;-40
2022/07/14 12:28:10;;;;;;;;;;;;;;;27.38;38.88;100808.72;5068759;28;1214;-39
2022/07/14 12:30:43;;;;;;;;;;;;;;;27.64;37.38;100812.88;5061141;28;996;-37
2022/07/14 12:33:08;;;;;;;;;;;;;;;26.46;39.89;100820.16;5060206;28;1203;-39
2022/07/14 12:35:33;;;;;;;;;;;;;;;22.63;48.96;100817.13;5065753;28;1262;-40
2022/07/14 12:37:59;;;;;;;;;;;;;;;22.47;54.43;100815.91;5057412;28;1512;-41
2022/07/14 12:40:24;;;;;;;;;;;;;;;25.25;42.75;100818.25;5069296;28;1959;-42
2022/07/14 12:42:50;;;;;;;;;;;;;;;22.47;49.60;100809.72;5060689;28;1143;-41
2022/07/14 12:45:15;;;;;;;;;;;;;;;22.69;54.38;100813.81;5057342;28;1424;-42
2022/07/14 12:47:50;;;;;;;;;;;;;;;25.34;42.62;100814.50;5063749;28;1513;-38
2022/07/14 12:50:19;;;;;;;;;;;;;;;22.19;51.08;100817.75;5057150;28;1349;-38
2022/07/14 12:52:56;;;;;;;;;;;;;;;23.78;48.74;100818.28;5056412;28;1325;-40
2022/07/14 12:55:32;;;;;;;;;;;;;;;23.59;47.27;100822.00;5066279;28;1478;-39